sensor_id;sensor_type;location;lat;lon;timestamp;pressure;altitude;pressure_sealevel;temperature
61977;BMP280;45905;50.570;10.428;2023-11-21T00:00:00;97245.41;;;8.35
61977;BMP280;45905;50.570;10.428;2023-11-21T00:02:28;97239.84;;;8.32
61977;BMP280;45905;50.570;10.428;2023-11-21T00:04:55;97242.56;;;8.22
61977;BMP280;45905;50.570;10.428;2023-11-21T00:07:22;97231.97;;;8.19
61977;BMP280;45905;50.570;10.428;2023-11-21T00:09:50;97237.19;;;8.18
61977;BMP280;45905;50.570;10.428;2023-11-21T00:12:18;97247.75;;;8.21
61977;BMP280;45905;50.570;10.428;2023-11-21T00:14:45;97249.16;;;8.23
61977;BMP280;45905;50.570;10.428;2023-11-21T00:17:13;97248.69;;;8.28
61977;BMP280;45905;50.570;10.428;2023-11-21T00:19:41;97245.09;;;8.30
61977;BMP280;45905;50.570;10.428;2023-11-21T00:22:10;97245.69;;;8.32
61977;BMP280;45905;50.570;10.428;2023-11-21T00:24:38;97241.28;;;8.34
61977;BMP280;45905;50.570;10.428;2023-11-21T00:27:05;97244.44;;;8.36
61977;BMP280;45905;50.570;10.428;2023-11-21T00:29:32;97247.59;;;8.38
61977;BMP280;45905;50.570;10.428;2023-11-21T00:32:00;97241.63;;;8.39
61977;BMP280;45905;50.570;10.428;2023-11-21T00:34:28;97249.00;;;8.40
61977;BMP280;45905;50.570;10.428;2023-11-21T00:36:55;97248.06;;;8.41
61977;BMP280;45905;50.570;10.428;2023-11-21T00:39:23;97248.06;;;8.41
61977;BMP280;45905;50.570;10.428;2023-11-21T00:41:51;97252.97;;;8.43
61977;BMP280;45905;50.570;10.428;2023-11-21T00:44:19;97253.75;;;8.43
61977;BMP280;45905;50.570;10.428;2023-11-21T00:46:46;97256.44;;;8.42
61977;BMP280;45905;50.570;10.428;2023-11-21T00:49:14;97256.28;;;8.36
61977;BMP280;45905;50.570;10.428;2023-11-21T00:51:42;97259.75;;;8.35
61977;BMP280;45905;50.570;10.428;2023-11-21T00:54:10;97250.75;;;8.32
61977;BMP280;45905;50.570;10.428;2023-11-21T00:56:38;97259.09;;;8.33
61977;BMP280;45905;50.570;10.428;2023-11-21T00:59:07;97266.53;;;8.34
61977;BMP280;45905;50.570;10.428;2023-11-21T01:01:34;97263.06;;;8.35
61977;BMP280;45905;50.570;10.428;2023-11-21T01:04:02;97261.31;;;8.36
61977;BMP280;45905;50.570;10.428;2023-11-21T01:06:29;97261.81;;;8.39
61977;BMP280;45905;50.570;10.428;2023-11-21T01:08:57;97248.25;;;8.40
61977;BMP280;45905;50.570;10.428;2023-11-21T01:11:25;97257.22;;;8.42
61977;BMP280;45905;50.570;10.428;2023-11-21T01:13:53;97268.09;;;8.43
61977;BMP280;45905;50.570;10.428;2023-11-21T01:16:21;97265.91;;;8.40
61977;BMP280;45905;50.570;10.428;2023-11-21T01:18:49;97263.69;;;8.37
61977;BMP280;45905;50.570;10.428;2023-11-21T01:21:16;97265.28;;;8.38
61977;BMP280;45905;50.570;10.428;2023-11-21T01:23:43;97261.63;;;8.40
61977;BMP280;45905;50.570;10.428;2023-11-21T01:26:11;97270.00;;;8.41
61977;BMP280;45905;50.570;10.428;2023-11-21T01:28:39;97270.78;;;8.41
61977;BMP280;45905;50.570;10.428;2023-11-21T01:31:06;97272.34;;;8.42
61977;BMP280;45905;50.570;10.428;2023-11-21T01:33:34;97268.91;;;8.43
61977;BMP280;45905;50.570;10.428;2023-11-21T01:36:01;97271.28;;;8.45
61977;BMP280;45905;50.570;10.428;2023-11-21T01:38:29;97263.53;;;8.46
61977;BMP280;45905;50.570;10.428;2023-11-21T01:40:56;97266.22;;;8.45
61977;BMP280;45905;50.570;10.428;2023-11-21T01:43:24;97270.78;;;8.41
61977;BMP280;45905;50.570;10.428;2023-11-21T01:45:52;97264.34;;;8.39
61977;BMP280;45905;50.570;10.428;2023-11-21T01:48:20;97267.66;;;8.39
61977;BMP280;45905;50.570;10.428;2023-11-21T01:50:48;97270.78;;;8.41
61977;BMP280;45905;50.570;10.428;2023-11-21T01:53:19;97267.31;;;8.42
61977;BMP280;45905;50.570;10.428;2023-11-21T01:55:49;97281.38;;;8.45
61977;BMP280;45905;50.570;10.428;2023-11-21T01:58:17;97271.28;;;8.45
61977;BMP280;45905;50.570;10.428;2023-11-21T02:00:45;97281.38;;;8.45
61977;BMP280;45905;50.570;10.428;2023-11-21T02:03:13;97275.69;;;8.43
61977;BMP280;45905;50.570;10.428;2023-11-21T02:05:40;97283.25;;;8.43
61977;BMP280;45905;50.570;10.428;2023-11-21T02:08:08;97281.66;;;8.42
61977;BMP280;45905;50.570;10.428;2023-11-21T02:10:36;97290.03;;;8.42
61977;BMP280;45905;50.570;10.428;2023-11-21T02:13:05;97293.34;;;8.43
61977;BMP280;45905;50.570;10.428;2023-11-21T02:15:33;97293.97;;;8.37
61977;BMP280;45905;50.570;10.428;2023-11-21T02:18:00;97286.84;;;8.33
61977;BMP280;45905;50.570;10.428;2023-11-21T02:20:30;97295.56;;;8.30
61977;BMP280;45905;50.570;10.428;2023-11-21T02:22:59;97289.06;;;8.28
61977;BMP280;45905;50.570;10.428;2023-11-21T02:25:30;97284.03;;;8.28
61977;BMP280;45905;50.570;10.428;2023-11-21T02:28:01;97279.91;;;8.27
61977;BMP280;45905;50.570;10.428;2023-11-21T02:30:30;97296.50;;;8.29
61977;BMP280;45905;50.570;10.428;2023-11-21T02:33:00;97290.31;;;8.32
61977;BMP280;45905;50.570;10.428;2023-11-21T02:35:29;97291.75;;;8.34
61977;BMP280;45905;50.570;10.428;2023-11-21T02:37:59;97293.97;;;8.37
61977;BMP280;45905;50.570;10.428;2023-11-21T02:40:27;97291.16;;;8.40
61977;BMP280;45905;50.570;10.428;2023-11-21T02:42:54;97285.13;;;8.41
61977;BMP280;45905;50.570;10.428;2023-11-21T02:45:22;97287.66;;;8.41
61977;BMP280;45905;50.570;10.428;2023-11-21T02:47:51;97283.56;;;8.40
61977;BMP280;45905;50.570;10.428;2023-11-21T02:50:25;97287.03;;;8.39
61977;BMP280;45905;50.570;10.428;2023-11-21T02:52:52;97290.50;;;8.38
61977;BMP280;45905;50.570;10.428;2023-11-21T03:00:02;97284.34;;;8.40
61977;BMP280;45905;50.570;10.428;2023-11-21T03:02:30;97285.91;;;8.41
61977;BMP280;45905;50.570;10.428;2023-11-21T03:04:58;97282.47;;;8.42
61977;BMP280;45905;50.570;10.428;2023-11-21T03:07:25;97289.88;;;8.44
61977;BMP280;45905;50.570;10.428;2023-11-21T03:09:53;97287.19;;;8.45
61977;BMP280;45905;50.570;10.428;2023-11-21T03:12:20;97287.19;;;8.45
61977;BMP280;45905;50.570;10.428;2023-11-21T03:14:48;97283.88;;;8.45
61977;BMP280;45905;50.570;10.428;2023-11-21T03:17:15;97278.84;;;8.45
61977;BMP280;45905;50.570;10.428;2023-11-21T03:19:42;97282.94;;;8.46
61977;BMP280;45905;50.570;10.428;2023-11-21T03:22:10;97290.50;;;8.46
61977;BMP280;45905;50.570;10.428;2023-11-21T03:24:39;97290.22;;;8.49
61977;BMP280;45905;50.570;10.428;2023-11-21T03:27:06;97287.69;;;8.49
61977;BMP280;45905;50.570;10.428;2023-11-21T03:29:34;97294.28;;;8.50
61977;BMP280;45905;50.570;10.428;2023-11-21T03:32:02;97290.03;;;8.50
61977;BMP280;45905;50.570;10.428;2023-11-21T03:34:29;97288.16;;;8.52
61977;BMP280;45905;50.570;10.428;2023-11-21T03:36:57;97287.69;;;8.49
61977;BMP280;45905;50.570;10.428;2023-11-21T03:39:25;97294.63;;;8.47
61977;BMP280;45905;50.570;10.428;2023-11-21T03:41:53;97307.25;;;8.47
61977;BMP280;45905;50.570;10.428;2023-11-21T03:44:21;97308.03;;;8.47
61977;BMP280;45905;50.570;10.428;2023-11-21T03:46:49;97308.19;;;8.46
61977;BMP280;45905;50.570;10.428;2023-11-21T03:49:17;97305.81;;;8.44
61977;BMP280;45905;50.570;10.428;2023-11-21T03:51:45;97307.53;;;8.44
61977;BMP280;45905;50.570;10.428;2023-11-21T03:54:12;97307.84;;;8.41
61977;BMP280;45905;50.570;10.428;2023-11-21T03:56:39;97309.56;;;8.40
61977;BMP280;45905;50.570;10.428;2023-11-21T03:59:07;97310.53;;;8.39
61977;BMP280;45905;50.570;10.428;2023-11-21T04:01:34;97320.16;;;8.36
61977;BMP280;45905;50.570;10.428;2023-11-21T04:04:02;97314.00;;;8.31
61977;BMP280;45905;50.570;10.428;2023-11-21T04:06:29;97317.63;;;8.28
61977;BMP280;45905;50.570;10.428;2023-11-21T04:08:57;97318.06;;;8.24
61977;BMP280;45905;50.570;10.428;2023-11-21T04:11:24;97321.84;;;8.20
61977;BMP280;45905;50.570;10.428;2023-11-21T04:13:52;97318.69;;;8.18
61977;BMP280;45905;50.570;10.428;2023-11-21T04:16:20;97319.47;;;8.19
61977;BMP280;45905;50.570;10.428;2023-11-21T04:18:47;97322.66;;;8.20
61977;BMP280;45905;50.570;10.428;2023-11-21T04:21:15;97326.56;;;8.23
61977;BMP280;45905;50.570;10.428;2023-11-21T04:23:42;97326.56;;;8.23
61977;BMP280;45905;50.570;10.428;2023-11-21T04:26:10;97328.94;;;8.24
61977;BMP280;45905;50.570;10.428;2023-11-21T04:28:37;97328.00;;;8.25
61977;BMP280;45905;50.570;10.428;2023-11-21T04:31:05;97332.25;;;8.25
61977;BMP280;45905;50.570;10.428;2023-11-21T04:33:34;97337.16;;;8.26
61977;BMP280;45905;50.570;10.428;2023-11-21T04:36:01;97335.56;;;8.25
61977;BMP280;45905;50.570;10.428;2023-11-21T04:38:29;97343.78;;;8.27
61977;BMP280;45905;50.570;10.428;2023-11-21T04:40:56;97340.78;;;8.24
61977;BMP280;45905;50.570;10.428;2023-11-21T04:43:27;97340.94;;;8.22
61977;BMP280;45905;50.570;10.428;2023-11-21T04:45:55;97343.78;;;8.19
61977;BMP280;45905;50.570;10.428;2023-11-21T04:48:22;97353.22;;;8.18
61977;BMP280;45905;50.570;10.428;2023-11-21T04:50:50;97348.00;;;8.11
61977;BMP280;45905;50.570;10.428;2023-11-21T04:53:18;97350.53;;;8.11
61977;BMP280;45905;50.570;10.428;2023-11-21T04:55:46;97356.66;;;8.09
61977;BMP280;45905;50.570;10.428;2023-11-21T04:58:14;97355.72;;;8.10
61977;BMP280;45905;50.570;10.428;2023-11-21T05:00:42;97354.78;;;8.11
61977;BMP280;45905;50.570;10.428;2023-11-21T05:03:09;97352.25;;;8.11
61977;BMP280;45905;50.570;10.428;2023-11-21T05:05:37;97358.88;;;8.12
61977;BMP280;45905;50.570;10.428;2023-11-21T05:08:05;97352.25;;;8.11
61977;BMP280;45905;50.570;10.428;2023-11-21T05:10:33;97353.97;;;8.10
61977;BMP280;45905;50.570;10.428;2023-11-21T05:13:01;97362.63;;;8.08
61977;BMP280;45905;50.570;10.428;2023-11-21T05:15:29;97368.78;;;8.05
61977;BMP280;45905;50.570;10.428;2023-11-21T05:17:56;97371.47;;;8.04
61977;BMP280;45905;50.570;10.428;2023-11-21T05:20:27;97371.63;;;8.02
61977;BMP280;45905;50.570;10.428;2023-11-21T05:22:55;97376.66;;;8.02
61977;BMP280;45905;50.570;10.428;2023-11-21T05:25:22;97374.94;;;8.03
61977;BMP280;45905;50.570;10.428;2023-11-21T05:27:50;97377.31;;;8.04
61977;BMP280;45905;50.570;10.428;2023-11-21T05:30:17;97377.31;;;8.04
61977;BMP280;45905;50.570;10.428;2023-11-21T05:32:45;97381.56;;;8.04
61977;BMP280;45905;50.570;10.428;2023-11-21T05:35:14;97384.09;;;8.04
61977;BMP280;45905;50.570;10.428;2023-11-21T05:37:45;97396.03;;;8.02
61977;BMP280;45905;50.570;10.428;2023-11-21T05:40:14;97389.56;;;8.00
61977;BMP280;45905;50.570;10.428;2023-11-21T05:42:41;97389.69;;;7.98
61977;BMP280;45905;50.570;10.428;2023-11-21T05:45:09;97401.03;;;7.94
61977;BMP280;45905;50.570;10.428;2023-11-21T05:47:40;97398.94;;;7.90
61977;BMP280;45905;50.570;10.428;2023-11-21T05:50:14;97400.53;;;7.91
61977;BMP280;45905;50.570;10.428;2023-11-21T05:52:44;97404.91;;;7.89
61977;BMP280;45905;50.570;10.428;2023-11-21T05:55:12;97405.09;;;7.87
61977;BMP280;45905;50.570;10.428;2023-11-21T05:57:43;97414.22;;;7.88
61977;BMP280;45905;50.570;10.428;2023-11-21T06:00:13;97413.28;;;7.89
61977;BMP280;45905;50.570;10.428;2023-11-21T06:02:52;97415.19;;;7.87
61977;BMP280;45905;50.570;10.428;2023-11-21T06:05:23;97419.59;;;7.85
61977;BMP280;45905;50.570;10.428;2023-11-21T06:07:56;97417.06;;;7.85
61977;BMP280;45905;50.570;10.428;2023-11-21T06:10:27;97424.63;;;7.85
61977;BMP280;45905;50.570;10.428;2023-11-21T06:12:56;97427.44;;;7.82
61977;BMP280;45905;50.570;10.428;2023-11-21T06:15:29;97435.13;;;7.81
61977;BMP280;45905;50.570;10.428;2023-11-21T06:17:57;97431.97;;;7.79
61977;BMP280;45905;50.570;10.428;2023-11-21T06:20:24;97441.28;;;7.79
61977;BMP280;45905;50.570;10.428;2023-11-21T06:22:53;97453.91;;;7.79
61977;BMP280;45905;50.570;10.428;2023-11-21T06:25:21;97457.34;;;7.78
61977;BMP280;45905;50.570;10.428;2023-11-21T06:27:50;97459.09;;;7.77
61977;BMP280;45905;50.570;10.428;2023-11-21T06:30:19;97458.16;;;7.78
61977;BMP280;45905;50.570;10.428;2023-11-21T06:32:47;97458.94;;;7.79
61977;BMP280;45905;50.570;10.428;2023-11-21T06:35:15;97463.19;;;7.78
61977;BMP280;45905;50.570;10.428;2023-11-21T06:37:44;97463.00;;;7.80
61977;BMP280;45905;50.570;10.428;2023-11-21T06:40:19;97459.56;;;7.80
61977;BMP280;45905;50.570;10.428;2023-11-21T06:42:48;97464.59;;;7.80
61977;BMP280;45905;50.570;10.428;2023-11-21T06:45:16;97468.72;;;7.81
61977;BMP280;45905;50.570;10.428;2023-11-21T06:47:44;97466.19;;;7.81
61977;BMP280;45905;50.570;10.428;2023-11-21T06:50:13;97463.66;;;7.81
61977;BMP280;45905;50.570;10.428;2023-11-21T06:52:40;97468.56;;;7.83
61977;BMP280;45905;50.570;10.428;2023-11-21T06:55:08;97472.81;;;7.82
61977;BMP280;45905;50.570;10.428;2023-11-21T06:57:37;97473.09;;;7.80
61977;BMP280;45905;50.570;10.428;2023-11-21T07:00:06;97478.31;;;7.78
61977;BMP280;45905;50.570;10.428;2023-11-21T07:02:37;97480.97;;;7.77
61977;BMP280;45905;50.570;10.428;2023-11-21T07:05:06;97480.34;;;7.75
61977;BMP280;45905;50.570;10.428;2023-11-21T07:07:34;97487.91;;;7.75
61977;BMP280;45905;50.570;10.428;2023-11-21T07:10:04;97487.25;;;7.73
61977;BMP280;45905;50.570;10.428;2023-11-21T07:12:33;97488.81;;;7.74
61977;BMP280;45905;50.570;10.428;2023-11-21T07:15:02;97500.63;;;7.73
61977;BMP280;45905;50.570;10.428;2023-11-21T07:17:30;97494.16;;;7.71
61977;BMP280;45905;50.570;10.428;2023-11-21T07:19:58;97500.31;;;7.68
61977;BMP280;45905;50.570;10.428;2023-11-21T07:22:26;97507.06;;;7.68
61977;BMP280;45905;50.570;10.428;2023-11-21T07:24:53;97510.53;;;7.67
61977;BMP280;45905;50.570;10.428;2023-11-21T07:27:21;97510.38;;;7.68
61977;BMP280;45905;50.570;10.428;2023-11-21T07:29:48;97514.50;;;7.69
61977;BMP280;45905;50.570;10.428;2023-11-21T07:32:16;97517.63;;;7.71
61977;BMP280;45905;50.570;10.428;2023-11-21T07:34:43;97523.47;;;7.72
61977;BMP280;45905;50.570;10.428;2023-11-21T07:37:11;97521.47;;;7.75
61977;BMP280;45905;50.570;10.428;2023-11-21T07:39:39;97528.88;;;7.77
61977;BMP280;45905;50.570;10.428;2023-11-21T07:42:09;97527.00;;;7.79
61977;BMP280;45905;50.570;10.428;2023-11-21T07:44:38;97527.78;;;7.79
61977;BMP280;45905;50.570;10.428;2023-11-21T07:47:06;97528.56;;;7.80
61977;BMP280;45905;50.570;10.428;2023-11-21T07:49:34;97537.09;;;7.79
61977;BMP280;45905;50.570;10.428;2023-11-21T07:52:01;97539.44;;;7.80
61977;BMP280;45905;50.570;10.428;2023-11-21T07:54:29;97550.31;;;7.80
61977;BMP280;45905;50.570;10.428;2023-11-21T07:56:56;97552.22;;;7.79
61977;BMP280;45905;50.570;10.428;2023-11-21T07:59:24;97551.44;;;7.78
61977;BMP280;45905;50.570;10.428;2023-11-21T08:01:51;97554.75;;;7.79
61977;BMP280;45905;50.570;10.428;2023-11-21T08:04:19;97559.00;;;7.78
61977;BMP280;45905;50.570;10.428;2023-11-21T08:06:47;97562.44;;;7.77
61977;BMP280;45905;50.570;10.428;2023-11-21T08:09:14;97563.53;;;7.75
61977;BMP280;45905;50.570;10.428;2023-11-21T08:11:44;97565.25;;;7.74
61977;BMP280;45905;50.570;10.428;2023-11-21T08:14:14;97566.84;;;7.75
61977;BMP280;45905;50.570;10.428;2023-11-21T08:16:42;97576.41;;;7.72
61977;BMP280;45905;50.570;10.428;2023-11-21T08:19:10;97569.78;;;7.71
61977;BMP280;45905;50.570;10.428;2023-11-21T08:21:38;97573.28;;;7.70
61977;BMP280;45905;50.570;10.428;2023-11-21T08:24:09;97569.31;;;7.67
61977;BMP280;45905;50.570;10.428;2023-11-21T08:26:38;97577.28;;;7.63
61977;BMP280;45905;50.570;10.428;2023-11-21T08:29:05;97577.28;;;7.63
61977;BMP280;45905;50.570;10.428;2023-11-21T08:31:34;97579.00;;;7.62
61977;BMP280;45905;50.570;10.428;2023-11-21T08:34:01;97577.28;;;7.63
61977;BMP280;45905;50.570;10.428;2023-11-21T08:36:30;97579.66;;;7.64
61977;BMP280;45905;50.570;10.428;2023-11-21T08:38:58;97581.25;;;7.65
61977;BMP280;45905;50.570;10.428;2023-11-21T08:41:26;97582.97;;;7.65
61977;BMP280;45905;50.570;10.428;2023-11-21T08:43:55;97577.81;;;7.66
61977;BMP280;45905;50.570;10.428;2023-11-21T08:46:23;97586.16;;;7.67
61977;BMP280;45905;50.570;10.428;2023-11-21T08:48:53;97585.50;;;7.65
61977;BMP280;45905;50.570;10.428;2023-11-21T08:51:20;97583.63;;;7.67
61977;BMP280;45905;50.570;10.428;2023-11-21T08:53:47;97590.25;;;7.68
61977;BMP280;45905;50.570;10.428;2023-11-21T08:56:15;97589.47;;;7.67
61977;BMP280;45905;50.570;10.428;2023-11-21T08:58:42;97588.81;;;7.65
61977;BMP280;45905;50.570;10.428;2023-11-21T09:01:10;97604.06;;;7.64
61977;BMP280;45905;50.570;10.428;2023-11-21T09:03:39;97601.88;;;7.61
61977;BMP280;45905;50.570;10.428;2023-11-21T09:06:08;97610.19;;;7.61
61977;BMP280;45905;50.570;10.428;2023-11-21T09:08:37;97603.41;;;7.62
61977;BMP280;45905;50.570;10.428;2023-11-21T09:11:05;97604.38;;;7.61
61977;BMP280;45905;50.570;10.428;2023-11-21T09:13:33;97609.44;;;7.61
61977;BMP280;45905;50.570;10.428;2023-11-21T09:16:02;97610.19;;;7.61
61977;BMP280;45905;50.570;10.428;2023-11-21T09:18:29;97619.34;;;7.62
61977;BMP280;45905;50.570;10.428;2023-11-21T09:20:58;97625.03;;;7.64
61977;BMP280;45905;50.570;10.428;2023-11-21T09:23:26;97630.72;;;7.66
61977;BMP280;45905;50.570;10.428;2023-11-21T09:25:54;97632.19;;;7.69
61977;BMP280;45905;50.570;10.428;2023-11-21T09:28:24;97621.66;;;7.73
61977;BMP280;45905;50.570;10.428;2023-11-21T09:30:51;97630.53;;;7.77
61977;BMP280;45905;50.570;10.428;2023-11-21T09:33:19;97633.41;;;7.82
61977;BMP280;45905;50.570;10.428;2023-11-21T09:35:48;97631.25;;;7.87
61977;BMP280;45905;50.570;10.428;2023-11-21T09:38:16;97644.34;;;7.90
61977;BMP280;45905;50.570;10.428;2023-11-21T09:40:44;97636.50;;;7.93
61977;BMP280;45905;50.570;10.428;2023-11-21T09:43:18;97650.38;;;7.97
61977;BMP280;45905;50.570;10.428;2023-11-21T09:45:59;97650.25;;;7.99
61977;BMP280;45905;50.570;10.428;2023-11-21T09:48:27;97644.94;;;8.01
61977;BMP280;45905;50.570;10.428;2023-11-21T09:50:57;97643.88;;;8.04
61977;BMP280;45905;50.570;10.428;2023-11-21T09:53:27;97639.16;;;8.09
61977;BMP280;45905;50.570;10.428;2023-11-21T09:55:57;97637.06;;;8.21
61977;BMP280;45905;50.570;10.428;2023-11-21T09:58:24;97642.81;;;8.31
61977;BMP280;45905;50.570;10.428;2023-11-21T10:00:59;97637.19;;;8.37
61977;BMP280;45905;50.570;10.428;2023-11-21T10:03:26;97633.72;;;8.38
61977;BMP280;45905;50.570;10.428;2023-11-21T10:05:54;97637.50;;;8.42
61977;BMP280;45905;50.570;10.428;2023-11-21T10:08:25;97632.31;;;8.43
61977;BMP280;45905;50.570;10.428;2023-11-21T10:11:14;97638.16;;;8.44
61977;BMP280;45905;50.570;10.428;2023-11-21T10:13:45;97633.63;;;8.47
61977;BMP280;45905;50.570;10.428;2023-11-21T10:16:19;97635.69;;;8.52
61977;BMP280;45905;50.570;10.428;2023-11-21T10:18:52;97636.97;;;8.56
61977;BMP280;45905;50.570;10.428;2023-11-21T10:21:39;97632.41;;;8.59
61977;BMP280;45905;50.570;10.428;2023-11-21T10:24:07;97634.03;;;8.68
61977;BMP280;45905;50.570;10.428;2023-11-21T10:26:35;97638.66;;;8.72
61977;BMP280;45905;50.570;10.428;2023-11-21T10:29:17;97633.00;;;8.78
61977;BMP280;45905;50.570;10.428;2023-11-21T10:31:48;97644.06;;;8.85
61977;BMP280;45905;50.570;10.428;2023-11-21T10:34:18;97641.91;;;8.90
61977;BMP280;45905;50.570;10.428;2023-11-21T10:36:46;97645.69;;;8.94
61977;BMP280;45905;50.570;10.428;2023-11-21T10:39:21;97653.78;;;8.97
61977;BMP280;45905;50.570;10.428;2023-11-21T10:41:50;97642.44;;;9.01
61977;BMP280;45905;50.570;10.428;2023-11-21T10:44:18;97652.06;;;9.05
61977;BMP280;45905;50.570;10.428;2023-11-21T10:46:54;97648.75;;;9.05
61977;BMP280;45905;50.570;10.428;2023-11-21T10:49:27;97650.34;;;9.06
61977;BMP280;45905;50.570;10.428;2023-11-21T10:51:55;97653.50;;;9.08
61977;BMP280;45905;50.570;10.428;2023-11-21T10:54:24;97654.78;;;9.12
61977;BMP280;45905;50.570;10.428;2023-11-21T10:57:00;97657.28;;;9.12
61977;BMP280;45905;50.570;10.428;2023-11-21T10:59:30;97659.69;;;9.13
61977;BMP280;45905;50.570;10.428;2023-11-21T11:02:00;97663.00;;;9.14
61977;BMP280;45905;50.570;10.428;2023-11-21T11:04:31;97658.72;;;9.14
61977;BMP280;45905;50.570;10.428;2023-11-21T11:07:03;97665.09;;;9.18
61977;BMP280;45905;50.570;10.428;2023-11-21T11:09:32;97662.38;;;9.19
61977;BMP280;45905;50.570;10.428;2023-11-21T11:12:04;97657.50;;;9.18
61977;BMP280;45905;50.570;10.428;2023-11-21T11:14:33;97668.41;;;9.18
61977;BMP280;45905;50.570;10.428;2023-11-21T11:17:01;97659.38;;;9.16
61977;BMP280;45905;50.570;10.428;2023-11-21T11:19:29;97662.06;;;9.14
61977;BMP280;45905;50.570;10.428;2023-11-21T11:27:47;97668.56;;;9.17
61977;BMP280;45905;50.570;10.428;2023-11-21T11:30:57;97667.09;;;9.14
61977;BMP280;45905;50.570;10.428;2023-11-21T11:34:08;97674.53;;;9.16
61977;BMP280;45905;50.570;10.428;2023-11-21T11:36:57;97674.25;;;9.19
61977;BMP280;45905;50.570;10.428;2023-11-21T11:39:29;97678.19;;;9.21
61977;BMP280;45905;50.570;10.428;2023-11-21T11:42:04;97671.41;;;9.22
61977;BMP280;45905;50.570;10.428;2023-11-21T11:47:19;97680.28;;;9.26
61977;BMP280;45905;50.570;10.428;2023-11-21T11:50:10;97678.06;;;9.31
61977;BMP280;45905;50.570;10.428;2023-11-21T11:52:49;97673.66;;;9.33
61977;BMP280;45905;50.570;10.428;2023-11-21T11:55:24;97671.13;;;9.33
61977;BMP280;45905;50.570;10.428;2023-11-21T11:57:53;97684.72;;;9.32
61977;BMP280;45905;50.570;10.428;2023-11-21T12:02:56;97693.22;;;9.31
61977;BMP280;45905;50.570;10.428;2023-11-21T12:05:25;97693.22;;;9.31
61977;BMP280;45905;50.570;10.428;2023-11-21T12:07:57;97689.25;;;9.28
61977;BMP280;45905;50.570;10.428;2023-11-21T12:10:44;97691.03;;;9.28
61977;BMP280;45905;50.570;10.428;2023-11-21T12:13:11;97689.59;;;9.25
61977;BMP280;45905;50.570;10.428;2023-11-21T12:15:40;97695.13;;;9.29
61977;BMP280;45905;50.570;10.428;2023-11-21T12:18:09;97689.13;;;9.30
61977;BMP280;45905;50.570;10.428;2023-11-21T12:20:37;97697.34;;;9.32
61977;BMP280;45905;50.570;10.428;2023-11-21T12:23:09;97696.41;;;9.33
61977;BMP280;45905;50.570;10.428;2023-11-21T12:25:38;97699.88;;;9.32
61977;BMP280;45905;50.570;10.428;2023-11-21T12:28:09;97703.34;;;9.31
61977;BMP280;45905;50.570;10.428;2023-11-21T12:30:38;97711.41;;;9.26
61977;BMP280;45905;50.570;10.428;2023-11-21T12:33:07;97711.84;;;9.22
61977;BMP280;45905;50.570;10.428;2023-11-21T12:35:38;97721.00;;;9.23
61977;BMP280;45905;50.570;10.428;2023-11-21T12:38:05;97726.06;;;9.23
61977;BMP280;45905;50.570;10.428;2023-11-21T12:40:33;97718.63;;;9.21
61977;BMP280;45905;50.570;10.428;2023-11-21T12:43:02;97714.69;;;9.19
61977;BMP280;45905;50.570;10.428;2023-11-21T12:45:32;97717.22;;;9.19
61977;BMP280;45905;50.570;10.428;2023-11-21T12:48:05;97712.59;;;9.14
61977;BMP280;45905;50.570;10.428;2023-11-21T12:50:39;97710.53;;;9.10
61977;BMP280;45905;50.570;10.428;2023-11-21T12:53:11;97710.81;;;9.07
61977;BMP280;45905;50.570;10.428;2023-11-21T12:55:45;97710.19;;;9.05
61977;BMP280;45905;50.570;10.428;2023-11-21T12:58:20;97718.84;;;9.03
61977;BMP280;45905;50.570;10.428;2023-11-21T13:00:49;97715.69;;;9.01
61977;BMP280;45905;50.570;10.428;2023-11-21T13:03:17;97717.44;;;9.00
61977;BMP280;45905;50.570;10.428;2023-11-21T13:05:48;97721.84;;;8.98
61977;BMP280;45905;50.570;10.428;2023-11-21T13:08:23;97722.13;;;8.95
61977;BMP280;45905;50.570;10.428;2023-11-21T13:10:54;97715.19;;;8.97
61977;BMP280;45905;50.570;10.428;2023-11-21T13:13:25;97719.31;;;8.98
61977;BMP280;45905;50.570;10.428;2023-11-21T13:16:02;97727.16;;;8.95
61977;BMP280;45905;50.570;10.428;2023-11-21T13:18:33;97726.22;;;8.96
61977;BMP280;45905;50.570;10.428;2023-11-21T13:21:05;97726.09;;;8.98
61977;BMP280;45905;50.570;10.428;2023-11-21T13:23:44;97727.03;;;8.97
61977;BMP280;45905;50.570;10.428;2023-11-21T13:26:13;97731.44;;;8.95
61977;BMP280;45905;50.570;10.428;2023-11-21T13:28:43;97727.31;;;8.94
61977;BMP280;45905;50.570;10.428;2023-11-21T13:31:14;97734.59;;;8.97
61977;BMP280;45905;50.570;10.428;2023-11-21T13:33:55;97725.47;;;9.04
61977;BMP280;45905;50.570;10.428;2023-11-21T13:36:26;97734.84;;;9.11
61977;BMP280;45905;50.570;10.428;2023-11-21T13:38:58;97741.31;;;9.14
61977;BMP280;45905;50.570;10.428;2023-11-21T13:41:26;97738.84;;;9.21
61977;BMP280;45905;50.570;10.428;2023-11-21T13:43:59;97734.53;;;9.14
61977;BMP280;45905;50.570;10.428;2023-11-21T13:46:39;97742.41;;;9.11
61977;BMP280;45905;50.570;10.428;2023-11-21T13:49:06;97745.25;;;9.08
61977;BMP280;45905;50.570;10.428;2023-11-21T13:51:37;97743.97;;;9.04
61977;BMP280;45905;50.570;10.428;2023-11-21T13:54:12;97754.66;;;8.98
61977;BMP280;45905;50.570;10.428;2023-11-21T13:56:41;97749.91;;;8.95
61977;BMP280;45905;50.570;10.428;2023-11-21T13:59:12;97746.91;;;8.92
61977;BMP280;45905;50.570;10.428;2023-11-21T14:01:52;97754.47;;;8.92
61977;BMP280;45905;50.570;10.428;2023-11-21T14:04:20;97747.19;;;8.89
61977;BMP280;45905;50.570;10.428;2023-11-21T14:07:02;97756.63;;;8.87
61977;BMP280;45905;50.570;10.428;2023-11-21T14:09:48;97761.03;;;8.85
61977;BMP280;45905;50.570;10.428;2023-11-21T14:12:17;97761.84;;;8.86
61977;BMP280;45905;50.570;10.428;2023-11-21T14:14:44;97761.03;;;8.85
61977;BMP280;45905;50.570;10.428;2023-11-21T14:17:14;97764.38;;;8.86
61977;BMP280;45905;50.570;10.428;2023-11-21T14:19:42;97764.50;;;8.84
61977;BMP280;45905;50.570;10.428;2023-11-21T14:22:11;97765.63;;;8.82
61977;BMP280;45905;50.570;10.428;2023-11-21T14:24:40;97769.06;;;8.81
61977;BMP280;45905;50.570;10.428;2023-11-21T14:27:14;97770.16;;;8.78
61977;BMP280;45905;50.570;10.428;2023-11-21T14:29:44;97768.09;;;8.74
61977;BMP280;45905;50.570;10.428;2023-11-21T14:32:12;97770.63;;;8.74
61977;BMP280;45905;50.570;10.428;2023-11-21T14:34:41;97775.81;;;8.73
61977;BMP280;45905;50.570;10.428;2023-11-21T14:37:13;97772.47;;;8.72